Long Lake, NY (12847)

11:02 AM EDT on August 25, 2016 (GMT -0400)
Plumley's Garage | | Change Station

Elev 1650 ft 43.97 °N, 74.42 °W | Updated 2 seconds ago

Overcast
Overcast
73.4 °F
Feels Like 75 °F
N
0.0
Wind Variable Wind from ESE
Gusts 0.0 mph

Today
High -- | Low -- °F
--% Chance of Precip.
Yesterday
High -- | Low -- °F
Precip. -- in
Pressure 29.96 in
Visibility 10.0 miles
Clouds Overcast 2100 ft
Heat Index 75 °F
Dew Point 65 °F
Humidity 75%
Rainfall 0.00 in
Snow Depth Not available.
6:13 AM 7:44 PM
Last Quarter, 45% visible
METAR KSLK 251451Z AUTO 22012G20KT 10SM OVC021 23/17 A2998 RMK AO2 SLP144 T02280172 57009
Pressure 29.96 in
Visibility 10.0 miles
Clouds Overcast 2100 ft
Heat Index 75 °F
Dew Point 65 °F
Humidity 75%
Rainfall 0.00 in
Snow Depth Not available.
6:13 AM 7:44 PM
Last Quarter, 45% visible
METAR KSLK 251451Z AUTO 22012G20KT 10SM OVC021 23/17 A2998 RMK AO2 SLP144 T02280172 57009

10-Day Weather Forecast

Almanac

Astronomy

Aug. 25, 2016 Rise Set
Actual Time
Civil Twilight
Nautical Twilight
Astronomical Twilight
Moon
Length of Visible Light
Length of Day
Tomorrow will be .
, % of the Moon is Illuminated

Today's Extremes

State Highs State Lows

Community

WunderPhotos

Upload Photos

1,934,854 photos uploaded!

WunderBlog® & News

Nearby

Air Quality

  Air Quality AQ Index Pollutant
Not available.

Snow Depth

Station Depth Elevation

Earthquake Activity

City Distance Mag. Time & Date
Minimum magnitude displayed is 2.5.

Coastal Water Temperatures

Place Temperature

Stations

Nearby Weather Stations

Station Location Temp. Windchill Dew Point Humidity Wind Precip. Elev Updated Type
                   

Watches & Warnings

There are currently no watches in effect.